Time;durP1;ratioP1;P1;durP2;ratioP2;P2;SDS_P1;SDS_P2;PMS_P1;PMS_P2;Temp;Humidity;BMP_temperature;BMP_pressure;BME280_temperature;BME280_humidity;BME280_pressure;Samples;Min_cycle;Max_cycle;Signal;HPM_P1;HPM_P2
2022/04/17 00:00:19;;;;;;;5.15;2.30;;;10.20;93.30;;;;;;5055112;28;20021;-60
2022/04/17 00:02:45;;;;;;;3.10;2.53;;;10.30;93.70;;;;;;5055027;28;20025;-60
2022/04/17 00:05:11;;;;;;;2.72;2.10;;;10.30;92.20;;;;;;5055572;28;20025;-60
2022/04/17 00:07:38;;;;;;;2.63;2.05;;;10.20;92.90;;;;;;5055042;28;20514;-60
2022/04/17 00:10:04;;;;;;;3.67;2.83;;;10.20;92.00;;;;;;5054902;28;20025;-60
2022/04/17 00:12:30;;;;;;;2.72;2.45;;;10.30;92.70;;;;;;5054985;28;20025;-60
2022/04/17 00:14:56;;;;;;;3.33;2.25;;;10.30;92.80;;;;;;5054827;28;20029;-60
2022/04/17 00:17:22;;;;;;;3.50;3.10;;;10.40;92.60;;;;;;5054847;28;20427;-60
2022/04/17 00:19:48;;;;;;;3.72;2.50;;;10.20;94.00;;;;;;5054657;28;20017;-61
2022/04/17 00:22:14;;;;;;;2.50;2.30;;;10.10;93.30;;;;;;5054819;28;20028;-60
2022/04/17 00:24:40;;;;;;;2.45;2.20;;;10.10;92.00;;;;;;5054805;28;20075;-60
2022/04/17 00:27:06;;;;;;;2.85;1.88;;;10.20;93.30;;;;;;5054629;28;20417;-61
2022/04/17 00:29:32;;;;;;;3.17;1.77;;;10.20;90.80;;;;;;5054820;28;20104;-61
2022/04/17 00:31:58;;;;;;;3.40;2.80;;;10.30;90.00;;;;;;5054497;28;20388;-59
2022/04/17 00:34:24;;;;;;;1.98;1.77;;;10.10;89.20;;;;;;5054330;28;20032;-60
2022/04/17 00:36:50;;;;;;;2.00;1.80;;;10.10;92.30;;;;;;5054704;28;20036;-60
2022/04/17 00:39:16;;;;;;;3.78;2.22;;;10.10;91.90;;;;;;5054404;28;20017;-60
2022/04/17 00:41:42;;;;;;;2.15;1.83;;;10.10;91.40;;;;;;5054247;28;20387;-60
2022/04/17 00:44:12;;;;;;;3.03;2.47;;;10.00;88.50;;;;;;5054182;28;20495;-60
2022/04/17 00:46:40;;;;;;;2.08;1.80;;;9.90;88.80;;;;;;5054206;28;20024;-60
2022/04/17 00:49:09;;;;;;;3.20;1.75;;;9.90;89.50;;;;;;5054108;28;20032;-60
2022/04/17 00:51:36;;;;;;;2.05;1.83;;;10.00;88.50;;;;;;5054252;28;20071;-61
2022/04/17 00:54:07;;;;;;;2.53;1.50;;;10.10;89.20;;;;;;5053585;28;20032;-60
2022/04/17 00:56:34;;;;;;;2.53;2.25;;;10.10;85.50;;;;;;5054228;28;20041;-60
2022/04/17 00:59:02;;;;;;;3.88;2.72;;;10.00;84.10;;;;;;5054040;28;20056;-60
2022/04/17 01:01:33;;;;;;;4.07;2.10;;;9.80;83.20;;;;;;5053950;28;20055;-60
2022/04/17 01:04:00;;;;;;;2.58;2.30;;;9.80;84.50;;;;;;5053750;28;20040;-60
2022/04/17 01:06:30;;;;;;;3.05;1.85;;;9.70;83.30;;;;;;5053871;28;20032;-60
2022/04/17 01:08:57;;;;;;;2.17;1.67;;;9.60;82.00;;;;;;5053893;28;20414;-59
2022/04/17 01:11:23;;;;;;;1.90;1.70;;;9.70;82.30;;;;;;5053668;28;20025;-61
2022/04/17 01:13:49;;;;;;;2.42;2.20;;;9.80;82.70;;;;;;5053717;28;20033;-61
2022/04/17 01:16:18;;;;;;;2.47;2.00;;;9.80;81.70;;;;;;5053533;28;20087;-61
2022/04/17 01:18:56;;;;;;;2.85;1.90;;;9.80;83.30;;;;;;5053613;28;20051;-60
2022/04/17 01:21:25;;;;;;;3.05;1.92;;;9.80;79.20;;;;;;5053652;28;20029;-60
2022/04/17 01:29:21;;;;;;;2.80;2.00;;;9.80;78.60;;;;;;5053787;28;20102;-60
2022/04/17 01:31:47;;;;;;;3.35;2.05;;;9.70;79.60;;;;;;5053735;28;20033;-59
2022/04/17 01:34:19;;;;;;;2.28;1.55;;;9.70;77.70;;;;;;5053673;28;20057;-60
2022/04/17 01:36:47;;;;;;;1.90;1.27;;;9.70;77.60;;;;;;5053544;28;20044;-59
2022/04/17 01:39:13;;;;;;;1.40;1.30;;;9.60;76.20;;;;;;5053419;28;20017;-60
2022/04/17 01:41:39;;;;;;;2.20;1.65;;;9.70;77.10;;;;;;5053241;28;20357;-60
2022/04/17 01:44:06;;;;;;;2.10;1.52;;;9.60;77.80;;;;;;5053488;28;20036;-60
2022/04/17 01:46:33;;;;;;;2.72;1.75;;;9.50;79.50;;;;;;5053553;28;20472;-60
2022/04/17 01:48:59;;;;;;;3.05;1.80;;;9.60;79.30;;;;;;5053310;28;20131;-59
2022/04/17 01:51:24;;;;;;;3.75;2.05;;;9.60;79.40;;;;;;5053456;28;20033;-61
2022/04/17 01:53:50;;;;;;;3.22;1.60;;;9.30;77.40;;;;;;5053322;28;20088;-60
2022/04/17 01:56:16;;;;;;;1.48;1.35;;;9.20;79.30;;;;;;5053219;28;20021;-60
2022/04/17 01:58:42;;;;;;;1.95;1.45;;;9.30;80.40;;;;;;5053065;28;20048;-60
2022/04/17 02:01:08;;;;;;;2.42;1.23;;;9.50;78.60;;;;;;5053174;28;20025;-59
2022/04/17 02:03:34;;;;;;;2.10;1.30;;;9.50;77.40;;;;;;5053043;28;20055;-60
2022/04/17 02:06:02;;;;;;;2.10;1.60;;;9.60;78.10;;;;;;5054777;28;20036;-60
2022/04/17 02:08:28;;;;;;;1.48;1.33;;;9.50;78.30;;;;;;5057107;28;20075;-60
2022/04/17 02:10:58;;;;;;;3.25;1.80;;;9.50;79.80;;;;;;5057473;28;20024;-60
2022/04/17 02:13:23;;;;;;;3.40;2.53;;;9.60;77.30;;;;;;5057113;28;20035;-60
2022/04/17 02:15:53;;;;;;;2.33;1.90;;;9.20;75.30;;;;;;5055689;28;20049;-58
2022/04/17 02:18:20;;;;;;;2.47;1.73;;;9.00;78.30;;;;;;5057072;28;20029;-60
2022/04/17 02:20:47;;;;;;;4.28;2.15;;;9.20;77.90;;;;;;5056691;28;20071;-60
2022/04/17 02:23:13;;;;;;;1.63;1.40;;;9.30;76.30;;;;;;5057020;28;20035;-60
2022/04/17 02:25:39;;;;;;;1.23;1.10;;;9.30;76.20;;;;;;5056823;28;20372;-60
2022/04/17 02:28:05;;;;;;;1.67;1.42;;;9.30;75.20;;;;;;5056799;28;20017;-60
2022/04/17 02:30:31;;;;;;;1.73;1.55;;;9.40;74.50;;;;;;5056839;28;20025;-60
2022/04/17 02:32:57;;;;;;;2.17;1.15;;;9.30;73.30;;;;;;5057035;28;20060;-59
2022/04/17 02:35:23;;;;;;;1.50;1.30;;;9.30;73.80;;;;;;5056449;28;20462;-60
2022/04/17 02:37:48;;;;;;;1.20;0.98;;;9.30;72.10;;;;;;5056816;28;20058;-60
2022/04/17 02:40:14;;;;;;;1.10;0.95;;;9.30;72.70;;;;;;5056642;28;20128;-58
2022/04/17 02:42:40;;;;;;;1.38;1.23;;;9.40;73.10;;;;;;5056871;28;20491;-60
2022/04/17 02:45:05;;;;;;;1.92;1.45;;;9.40;72.40;;;;;;5056703;28;20065;-59
2022/04/17 02:47:44;;;;;;;2.78;1.55;;;9.30;73.10;;;;;;5056611;28;20017;-60
2022/04/17 02:50:10;;;;;;;3.03;1.60;;;9.30;74.00;;;;;;5056198;28;20127;-59
2022/04/17 02:52:36;;;;;;;1.75;1.40;;;9.20;70.80;;;;;;5056706;28;20104;-60
2022/04/17 02:55:03;;;;;;;1.35;1.02;;;9.30;72.80;;;;;;5056515;28;20151;-60
2022/04/17 02:57:30;;;;;;;1.75;1.40;;;9.30;71.40;;;;;;5056586;28;20383;-60
2022/04/17 02:59:56;;;;;;;2.28;1.58;;;9.30;71.70;;;;;;5056425;28;20024;-60
2022/04/17 03:07:51;;;;;;;1.77;1.50;;;9.30;71.90;;;;;;5056456;28;20166;-60
2022/04/17 03:10:17;;;;;;;1.60;1.10;;;9.40;73.10;;;;;;5056011;28;20104;-59
2022/04/17 03:12:43;;;;;;;1.92;1.10;;;9.50;74.90;;;;;;5056175;28;20021;-59
2022/04/17 03:15:09;;;;;;;1.38;1.20;;;9.50;73.60;;;;;;5055680;28;20048;-60
2022/04/17 03:17:35;;;;;;;2.50;1.70;;;9.30;72.30;;;;;;5055581;28;20119;-59
2022/04/17 03:20:03;;;;;;;1.55;1.33;;;9.20;73.40;;;;;;5056041;28;20110;-60
2022/04/17 03:22:29;;;;;;;2.15;1.50;;;9.20;72.10;;;;;;5056078;28;20029;-58
2022/04/17 03:24:55;;;;;;;1.83;1.30;;;9.10;70.70;;;;;;5055640;28;20369;-59
2022/04/17 03:27:22;;;;;;;1.73;1.10;;;9.10;71.90;;;;;;5055793;28;20024;-60
2022/04/17 03:29:48;;;;;;;2.05;1.05;;;9.10;70.70;;;;;;5055731;28;20036;-59
2022/04/17 03:32:14;;;;;;;1.10;1.00;;;9.20;71.90;;;;;;5055898;28;20024;-60
2022/04/17 03:34:39;;;;;;;1.50;1.20;;;9.30;71.10;;;;;;5055564;28;20100;-59
2022/04/17 03:37:05;;;;;;;3.40;1.20;;;9.30;71.80;;;;;;5055606;28;20407;-61
2022/04/17 03:39:31;;;;;;;1.30;1.17;;;9.40;72.50;;;;;;5055448;28;20475;-61
2022/04/17 03:41:57;;;;;;;2.05;1.40;;;9.40;71.00;;;;;;5055620;28;20029;-60
2022/04/17 03:44:26;;;;;;;1.77;1.20;;;9.40;72.40;;;;;;5055421;28;20040;-60
2022/04/17 03:46:51;;;;;;;2.30;1.20;;;9.40;70.90;;;;;;5055472;28;20036;-60
2022/04/17 03:49:17;;;;;;;1.88;1.60;;;9.40;72.40;;;;;;5055492;28;20030;-60
2022/04/17 03:51:43;;;;;;;1.75;1.05;;;9.30;71.40;;;;;;5055324;28;20021;-60
2022/04/17 03:54:09;;;;;;;2.47;1.45;;;9.10;70.80;;;;;;5055170;28;20036;-59
2022/04/17 03:56:35;;;;;;;1.40;1.30;;;9.20;72.70;;;;;;5055356;28;20036;-59
2022/04/17 03:59:03;;;;;;;1.83;1.50;;;9.30;71.70;;;;;;5055303;28;20025;-60
2022/04/17 04:01:29;;;;;;;2.75;1.75;;;9.10;69.40;;;;;;5055412;28;20025;-60
2022/04/17 04:03:55;;;;;;;1.40;1.10;;;9.10;70.00;;;;;;5054972;28;20040;-59
2022/04/17 04:06:21;;;;;;;2.00;1.15;;;9.10;71.40;;;;;;5055120;28;20047;-60
2022/04/17 04:08:50;;;;;;;2.08;1.88;;;9.10;70.80;;;;;;5054974;28;20024;-60
2022/04/17 04:11:17;;;;;;;2.30;2.00;;;9.00;70.60;;;;;;5054848;28;20017;-60
2022/04/17 04:13:43;;;;;;;2.05;1.52;;;8.70;69.90;;;;;;5055187;28;20066;-60
2022/04/17 04:16:09;;;;;;;1.75;1.30;;;8.70;70.30;;;;;;5054891;28;20415;-59
2022/04/17 04:18:35;;;;;;;1.67;1.17;;;8.80;72.00;;;;;;5054515;28;20104;-60
2022/04/17 04:21:01;;;;;;;2.10;1.30;;;8.90;70.90;;;;;;5054695;28;20044;-60
2022/04/17 04:23:30;;;;;;;1.48;1.08;;;9.10;70.80;;;;;;5054844;28;20379;-60
2022/04/17 04:25:56;;;;;;;2.88;1.42;;;9.20;70.40;;;;;;5054493;28;20028;-60
2022/04/17 04:28:33;;;;;;;1.60;1.20;;;9.20;69.30;;;;;;5054151;28;20025;-59
2022/04/17 04:31:06;;;;;;;1.67;1.10;;;9.20;68.40;;;;;;5054665;28;20048;-60
2022/04/17 04:33:33;;;;;;;1.37;1.20;;;9.10;68.40;;;;;;5054608;28;20414;-58
2022/04/17 04:35:59;;;;;;;2.22;0.90;;;9.20;69.40;;;;;;5054422;28;20235;-60
2022/04/17 04:38:26;;;;;;;1.55;1.15;;;9.30;68.80;;;;;;5054426;28;20101;-60
2022/04/17 04:40:52;;;;;;;3.67;1.23;;;9.40;68.40;;;;;;5054904;28;20057;-58
2022/04/17 04:43:18;;;;;;;1.40;1.30;;;9.40;68.60;;;;;;5054441;28;20433;-60
2022/04/17 04:51:13;;;;;;;3.05;1.35;;;9.30;67.70;;;;;;5054418;28;20083;-60
2022/04/17 04:53:39;;;;;;;1.77;1.40;;;9.20;68.40;;;;;;5054161;28;20459;-59
2022/04/17 04:56:06;;;;;;;1.48;0.98;;;9.20;66.80;;;;;;5054365;28;20021;-59
2022/04/17 04:58:32;;;;;;;1.20;1.10;;;9.30;67.70;;;;;;5053952;28;20513;-60
2022/04/17 05:00:57;;;;;;;2.13;1.40;;;9.40;65.50;;;;;;5053786;28;20017;-60
2022/04/17 05:03:24;;;;;;;1.42;1.00;;;9.30;64.60;;;;;;5054167;28;20024;-59
2022/04/17 05:05:49;;;;;;;1.30;1.20;;;9.30;65.20;;;;;;5053859;28;20472;-60
2022/04/17 05:08:15;;;;;;;0.93;0.93;;;9.40;65.50;;;;;;5053934;28;20049;-60
2022/04/17 05:10:41;;;;;;;1.15;1.00;;;9.50;64.30;;;;;;5054110;28;20100;-59
2022/04/17 05:13:06;;;;;;;2.10;1.02;;;9.60;64.90;;;;;;5053720;28;20032;-59
2022/04/17 05:15:32;;;;;;;2.10;1.00;;;9.60;63.80;;;;;;5053324;28;20045;-59
2022/04/17 05:17:57;;;;;;;2.28;1.23;;;9.60;64.20;;;;;;5053643;28;20029;-60
2022/04/17 05:20:24;;;;;;;1.35;0.95;;;9.50;65.40;;;;;;5053758;28;20024;-59
2022/04/17 05:22:56;;;;;;;1.38;1.25;;;9.40;63.40;;;;;;5053433;28;20025;-60
2022/04/17 05:25:24;;;;;;;1.90;1.58;;;9.50;63.40;;;;;;5053591;28;20422;-60
2022/04/17 05:27:49;;;;;;;3.58;1.55;;;9.50;62.80;;;;;;5053548;28;20540;-59
2022/04/17 05:30:15;;;;;;;1.63;1.13;;;9.30;64.40;;;;;;5053159;28;20104;-61
2022/04/17 05:32:41;;;;;;;2.67;1.60;;;9.20;64.50;;;;;;5053664;28;20094;-60
2022/04/17 05:35:07;;;;;;;1.67;1.20;;;9.30;64.30;;;;;;5053487;28;20032;-60
2022/04/17 05:37:33;;;;;;;1.70;1.55;;;9.30;62.80;;;;;;5053337;28;20032;-60
2022/04/17 05:39:58;;;;;;;1.95;1.60;;;9.40;63.10;;;;;;5053370;28;20057;-60
2022/04/17 05:42:24;;;;;;;2.30;1.40;;;9.30;62.40;;;;;;5053338;28;20025;-60
2022/04/17 05:44:52;;;;;;;1.40;1.23;;;9.30;61.80;;;;;;5052884;28;20064;-60
2022/04/17 05:47:17;;;;;;;1.77;1.23;;;9.30;61.20;;;;;;5053217;28;20113;-60
2022/04/17 05:49:43;;;;;;;2.50;1.17;;;9.40;60.30;;;;;;5052021;28;20114;-60
2022/04/17 05:52:10;;;;;;;2.38;1.40;;;9.50;61.30;;;;;;5053166;28;20021;-59
2022/04/17 05:54:36;;;;;;;1.20;0.95;;;9.50;58.80;;;;;;5053284;28;20028;-60
2022/04/17 05:57:02;;;;;;;2.08;1.35;;;9.40;60.80;;;;;;5053367;28;20449;-59
2022/04/17 05:59:28;;;;;;;2.15;1.42;;;9.50;59.80;;;;;;5053195;28;20079;-59
2022/04/17 06:01:53;;;;;;;2.60;1.63;;;9.50;60.80;;;;;;5053033;28;20052;-59
2022/04/17 06:04:19;;;;;;;2.03;1.60;;;9.40;61.40;;;;;;5053122;28;20059;-59
2022/04/17 06:06:45;;;;;;;1.83;1.20;;;9.20;60.70;;;;;;5053029;28;20088;-59
2022/04/17 06:09:10;;;;;;;3.10;1.60;;;9.20;60.60;;;;;;5052977;28;20021;-59
2022/04/17 06:11:36;;;;;;;2.80;1.48;;;9.20;60.00;;;;;;5053073;28;20021;-59
2022/04/17 06:14:02;;;;;;;2.30;1.45;;;9.30;61.80;;;;;;5052844;28;20033;-59
2022/04/17 06:16:28;;;;;;;2.17;1.40;;;9.30;62.40;;;;;;5052772;28;20132;-59
2022/04/17 06:18:54;;;;;;;1.30;1.20;;;9.40;61.20;;;;;;5052954;28;20033;-59
2022/04/17 06:21:20;;;;;;;1.20;1.10;;;9.50;61.30;;;;;;5052839;28;20017;-59
2022/04/17 06:23:45;;;;;;;2.28;1.08;;;9.70;62.00;;;;;;5052605;28;20043;-59
2022/04/17 06:26:11;;;;;;;4.22;1.50;;;9.70;59.90;;;;;;5052901;28;20022;-59
2022/04/17 06:28:38;;;;;;;1.38;1.27;;;9.80;60.10;;;;;;5052718;28;20048;-59
2022/04/17 06:31:07;;;;;;;1.58;1.35;;;9.80;59.80;;;;;;5052746;28;20025;-60
2022/04/17 06:33:32;;;;;;;2.35;1.92;;;9.90;58.30;;;;;;5052937;28;20467;-59
2022/04/17 06:35:58;;;;;;;2.67;1.70;;;9.70;58.40;;;;;;5052868;28;20022;-57
2022/04/17 06:38:24;;;;;;;2.15;1.17;;;9.70;59.10;;;;;;5052812;28;20047;-59
2022/04/17 06:40:50;;;;;;;2.25;1.80;;;9.70;58.50;;;;;;5053067;28;20029;-59
2022/04/17 06:43:15;;;;;;;1.92;1.50;;;9.70;58.70;;;;;;5052647;28;20025;-58
2022/04/17 06:45:41;;;;;;;1.67;1.10;;;9.60;60.50;;;;;;5052576;28;20063;-59
2022/04/17 06:48:33;;;;;;;3.08;1.52;;;9.60;59.30;;;;;;5052637;28;20017;-60
2022/04/17 06:50:59;;;;;;;1.90;1.38;;;9.90;59.20;;;;;;5052413;28;20044;-59
2022/04/17 06:53:25;;;;;;;1.52;1.38;;;10.00;59.10;;;;;;5056318;28;20368;-60
2022/04/17 06:55:52;;;;;;;2.15;1.50;;;10.20;58.10;;;;;;5056437;28;20154;-59
2022/04/17 06:58:18;;;;;;;4.35;1.40;;;10.40;56.60;;;;;;5056160;28;20376;-61
2022/04/17 07:00:45;;;;;;;2.25;1.30;;;10.30;55.90;;;;;;5056196;28;20032;-60
2022/04/17 07:03:13;;;;;;;1.50;1.10;;;10.70;52.70;;;;;;5056377;28;20475;-60
2022/04/17 07:05:39;;;;;;;2.53;1.25;;;11.10;54.60;;;;;;5056455;28;20369;-61
2022/04/17 07:08:06;;;;;;;3.35;1.58;;;11.50;53.30;;;;;;5056101;28;20586;-60
2022/04/17 07:10:34;;;;;;;2.15;1.80;;;11.60;52.90;;;;;;5055860;28;20025;-60
2022/04/17 07:13:00;;;;;;;2.08;1.77;;;11.80;53.40;;;;;;5056067;28;20013;-60
2022/04/17 07:15:26;;;;;;;2.42;1.50;;;11.50;53.20;;;;;;5055958;28;20056;-60
2022/04/17 07:17:53;;;;;;;3.40;2.03;;;11.30;53.90;;;;;;5056003;28;20374;-60
2022/04/17 07:20:19;;;;;;;2.88;1.73;;;11.50;54.20;;;;;;5056223;28;20483;-61
2022/04/17 07:22:47;;;;;;;1.50;1.30;;;11.60;52.50;;;;;;5055684;28;20055;-60
2022/04/17 07:25:14;;;;;;;1.98;1.60;;;11.60;51.70;;;;;;5055748;28;20052;-60
2022/04/17 07:27:47;;;;;;;3.13;1.52;;;11.40;51.90;;;;;;5055743;28;20059;-60
2022/04/17 07:30:18;;;;;;;1.33;1.23;;;11.20;50.70;;;;;;5055658;28;20027;-60
2022/04/17 07:32:48;;;;;;;1.45;1.15;;;11.20;52.20;;;;;;5055678;28;20471;-60
2022/04/17 07:35:15;;;;;;;1.75;1.10;;;11.10;52.20;;;;;;5055643;28;20032;-60
2022/04/17 07:37:46;;;;;;;1.70;1.30;;;11.20;53.60;;;;;;5055638;28;20112;-60
2022/04/17 07:40:18;;;;;;;1.70;1.40;;;11.40;51.70;;;;;;5055571;28;20048;-60
2022/04/17 07:42:45;;;;;;;2.13;1.60;;;11.50;50.90;;;;;;5055686;28;20033;-60
2022/04/17 07:45:12;;;;;;;3.78;2.22;;;11.60;50.90;;;;;;5055355;28;20029;-58
2022/04/17 07:47:39;;;;;;;4.78;3.13;;;11.70;50.80;;;;;;5055423;28;20484;-60
2022/04/17 07:50:07;;;;;;;3.15;2.25;;;11.70;51.30;;;;;;5055557;28;20074;-60
2022/04/17 07:52:35;;;;;;;3.33;2.20;;;12.00;49.70;;;;;;5055590;28;20025;-60
2022/04/17 07:55:03;;;;;;;2.28;1.80;;;12.10;51.90;;;;;;5055197;28;20029;-60
2022/04/17 07:57:30;;;;;;;2.70;1.70;;;12.40;51.30;;;;;;5055455;28;20100;-60
2022/04/17 07:59:56;;;;;;;2.30;1.48;;;12.70;50.90;;;;;;5055419;28;20092;-60
2022/04/17 08:02:22;;;;;;;1.80;1.40;;;13.00;48.30;;;;;;5054756;28;20064;-60
2022/04/17 08:04:52;;;;;;;2.15;1.50;;;13.10;47.00;;;;;;5054166;28;20120;-60
2022/04/17 08:07:21;;;;;;;2.55;1.60;;;13.50;48.80;;;;;;5055127;28;20546;-60
2022/04/17 08:09:47;;;;;;;2.53;1.45;;;13.90;48.70;;;;;;5054780;28;20471;-60
2022/04/17 08:12:13;;;;;;;1.52;1.42;;;14.00;46.10;;;;;;5055193;28;20049;-60
2022/04/17 08:14:39;;;;;;;2.25;1.35;;;14.00;46.60;;;;;;5055003;28;20428;-61
2022/04/17 08:17:05;;;;;;;4.82;3.08;;;13.80;44.80;;;;;;5054639;28;20500;-60
2022/04/17 08:19:32;;;;;;;2.90;2.20;;;14.10;48.80;;;;;;5055061;28;20029;-60
2022/04/17 08:22:03;;;;;;;2.83;1.95;;;14.30;47.10;;;;;;5054785;28;20454;-60
2022/04/17 08:24:30;;;;;;;2.03;1.73;;;14.50;48.30;;;;;;5054466;28;20057;-60
2022/04/17 08:26:58;;;;;;;2.05;1.48;;;14.70;46.90;;;;;;5054648;28;20021;-60
2022/04/17 08:29:25;;;;;;;1.50;1.30;;;14.40;47.10;;;;;;5054760;28;20041;-61
2022/04/17 08:31:51;;;;;;;1.70;1.20;;;14.90;46.90;;;;;;5054922;28;20027;-60
2022/04/17 08:34:16;;;;;;;1.83;1.02;;;15.40;45.90;;;;;;5054609;28;20533;-61
2022/04/17 08:36:42;;;;;;;1.58;1.10;;;15.90;44.70;;;;;;5054509;28;20486;-60
2022/04/17 08:39:08;;;;;;;1.50;1.40;;;17.10;43.40;;;;;;5054256;28;20018;-60
2022/04/17 08:41:34;;;;;;;2.15;1.95;;;18.50;42.50;;;;;;5054313;28;20025;-61
2022/04/17 08:43:59;;;;;;;2.20;1.60;;;19.10;41.60;;;;;;5054291;28;20029;-61
2022/04/17 08:46:25;;;;;;;1.73;1.27;;;19.60;41.10;;;;;;5054700;28;20024;-60
2022/04/17 08:48:52;;;;;;;1.75;1.33;;;20.30;39.60;;;;;;5054208;28;20070;-61
2022/04/17 08:51:21;;;;;;;1.50;1.30;;;20.30;37.90;;;;;;5054118;28;20017;-61
2022/04/17 08:53:49;;;;;;;2.20;1.50;;;20.60;39.60;;;;;;5053941;28;20074;-60
2022/04/17 08:56:15;;;;;;;1.20;1.10;;;20.50;36.60;;;;;;5054103;28;20103;-61
2022/04/17 08:58:41;;;;;;;1.60;1.05;;;20.00;37.10;;;;;;5053907;28;20155;-61
2022/04/17 09:01:07;;;;;;;1.48;1.13;;;20.50;38.90;;;;;;5054008;28;20028;-61
2022/04/17 09:03:32;;;;;;;1.45;1.20;;;20.70;37.30;;;;;;5053897;28;20028;-61
2022/04/17 09:05:58;;;;;;;1.60;1.50;;;20.80;37.40;;;;;;5054134;28;20438;-61
2022/04/17 09:08:24;;;;;;;1.30;1.20;;;21.10;36.30;;;;;;5054041;28;20415;-61
2022/04/17 09:10:58;;;;;;;1.88;1.52;;;21.40;38.40;;;;;;5054150;28;20464;-61
2022/04/17 09:13:33;;;;;;;2.03;1.60;;;21.40;36.90;;;;;;5053970;28;20096;-61
2022/04/17 09:16:01;;;;;;;1.80;1.60;;;21.70;35.50;;;;;;5053469;28;20041;-61
2022/04/17 09:18:28;;;;;;;1.92;1.73;;;22.00;35.20;;;;;;5053723;28;20064;-59
2022/04/17 09:20:54;;;;;;;3.75;2.33;;;22.20;37.30;;;;;;5053688;28;20049;-59
2022/04/17 09:23:40;;;;;;;2.17;1.90;;;22.40;36.70;;;;;;5053680;28;20027;-59
2022/04/17 09:26:07;;;;;;;2.15;1.63;;;22.70;35.90;;;;;;5053454;28;20049;-59
2022/04/17 09:28:35;;;;;;;1.80;1.58;;;22.30;35.30;;;;;;5053838;28;20032;-60
2022/04/17 09:31:08;;;;;;;1.70;1.30;;;22.30;36.50;;;;;;5053506;28;20123;-60
2022/04/17 09:33:38;;;;;;;1.58;1.48;;;22.70;36.80;;;;;;5053455;28;20040;-60
2022/04/17 09:36:05;;;;;;;2.80;1.70;;;22.30;36.90;;;;;;5053706;28;20044;-60
2022/04/17 09:38:32;;;;;;;2.05;1.42;;;21.40;33.80;;;;;;5053196;28;20017;-60
2022/04/17 09:41:05;;;;;;;1.40;1.30;;;20.60;34.90;;;;;;5053400;28;20031;-60
2022/04/17 09:43:35;;;;;;;1.73;1.42;;;19.50;34.90;;;;;;5053387;28;20072;-60
2022/04/17 09:46:03;;;;;;;1.60;1.50;;;18.80;35.20;;;;;;5053246;28;20492;-60
2022/04/17 09:48:37;;;;;;;1.45;1.30;;;18.70;35.90;;;;;;5053338;28;20017;-60
2022/04/17 09:51:22;;;;;;;1.70;1.50;;;19.00;36.80;;;;;;5052943;28;20078;-60
2022/04/17 09:54:05;;;;;;;1.75;1.48;;;19.50;37.70;;;;;;5053322;28;20021;-60
2022/04/17 09:56:35;;;;;;;1.38;1.10;;;20.10;36.80;;;;;;5053388;28;20063;-60
2022/04/17 09:59:14;;;;;;;1.30;1.17;;;20.50;35.50;;;;;;5053456;28;20029;-60
2022/04/17 10:01:40;;;;;;;2.20;1.67;;;20.20;36.00;;;;;;5053002;28;20476;-60
2022/04/17 10:04:06;;;;;;;1.98;1.40;;;19.40;33.80;;;;;;5053217;28;20017;-60
2022/04/17 10:06:34;;;;;;;1.48;1.33;;;19.60;34.20;;;;;;5053186;28;20032;-60
2022/04/17 10:09:00;;;;;;;1.73;1.35;;;19.80;34.70;;;;;;5052908;28;20018;-60
2022/04/17 10:11:27;;;;;;;1.75;1.17;;;20.10;35.40;;;;;;5053224;28;20032;-60
2022/04/17 10:13:53;;;;;;;1.63;1.30;;;20.20;36.10;;;;;;5053250;28;20056;-59
2022/04/17 10:16:21;;;;;;;1.73;1.40;;;20.00;35.40;;;;;;5052772;28;20103;-59
2022/04/17 10:18:48;;;;;;;2.30;1.30;;;19.50;34.70;;;;;;5053004;28;20063;-60
2022/04/17 10:21:15;;;;;;;1.70;1.60;;;19.50;34.80;;;;;;5053094;28;20029;-60
2022/04/17 10:23:43;;;;;;;1.58;1.48;;;19.80;35.00;;;;;;5053061;28;20055;-61
2022/04/17 10:26:13;;;;;;;1.73;1.25;;;19.00;35.10;;;;;;5053196;28;20037;-60
2022/04/17 10:28:46;;;;;;;2.60;1.70;;;19.00;36.30;;;;;;5056932;28;20023;-60
2022/04/17 10:31:20;;;;;;;1.40;1.30;;;20.00;37.60;;;;;;5057125;28;20383;-60
2022/04/17 10:33:52;;;;;;;1.80;1.67;;;20.10;35.20;;;;;;5056962;28;20463;-60
2022/04/17 10:36:46;;;;;;;2.20;1.50;;;19.80;35.70;;;;;;5056659;28;20057;-60
2022/04/17 10:39:18;;;;;;;1.92;1.67;;;19.40;33.10;;;;;;5056779;28;20017;-60
2022/04/17 10:41:44;;;;;;;2.13;1.40;;;19.10;34.20;;;;;;5056796;28;20502;-61
2022/04/17 10:44:14;;;;;;;3.33;1.30;;;19.20;37.30;;;;;;5056544;28;20024;-60
2022/04/17 10:46:51;;;;;;;2.17;1.10;;;19.60;35.50;;;;;;5056603;28;20025;-61
2022/04/17 10:49:21;;;;;;;0.90;0.90;;;20.10;39.10;;;;;;5056452;28;20093;-61
2022/04/17 10:52:05;;;;;;;1.42;1.17;;;19.90;32.80;;;;;;5056547;28;20426;-60
2022/04/17 10:54:52;;;;;;;2.63;1.27;;;19.60;33.30;;;;;;5056400;28;20494;-61
2022/04/17 10:57:26;;;;;;;1.42;1.30;;;19.50;33.80;;;;;;5056379;28;20047;-61
2022/04/17 11:00:23;;;;;;;1.48;1.38;;;19.80;33.80;;;;;;5056655;28;20025;-61
2022/04/17 11:02:49;;;;;;;2.92;1.83;;;20.30;36.20;;;;;;5055944;28;20021;-61
2022/04/17 11:08:27;;;;;;;1.48;1.38;;;20.20;33.50;;;;;;5056219;28;20075;-61
2022/04/17 11:11:00;;;;;;;2.13;1.25;;;20.00;34.00;;;;;;5056198;28;20021;-61
2022/04/17 11:13:26;;;;;;;2.47;1.30;;;19.80;33.50;;;;;;5056118;28;20074;-61
2022/04/17 11:15:57;;;;;;;1.55;1.40;;;19.00;32.70;;;;;;5056019;28;20044;-61
2022/04/17 11:18:29;;;;;;;1.35;1.25;;;18.40;34.20;;;;;;5056045;28;20025;-61
2022/04/17 11:20:55;;;;;;;1.35;1.25;;;18.00;33.20;;;;;;5055921;28;20032;-60
2022/04/17 11:23:49;;;;;;;2.60;1.35;;;18.10;35.80;;;;;;5051773;28;20392;-61
2022/04/17 11:26:15;;;;;;;2.42;1.30;;;18.00;34.10;;;;;;5035935;28;20029;-61
2022/04/17 11:28:41;;;;;;;2.33;1.40;;;17.60;35.20;;;;;;5035893;28;20029;-61
2022/04/17 11:31:07;;;;;;;1.65;1.10;;;17.40;36.30;;;;;;5035683;28;20376;-61
2022/04/17 11:33:33;;;;;;;2.20;1.10;;;17.60;35.60;;;;;;5035624;28;20017;-61
2022/04/17 11:35:59;;;;;;;2.28;1.30;;;17.80;36.30;;;;;;5035997;28;20498;-61
2022/04/17 11:38:25;;;;;;;2.15;1.25;;;18.20;36.00;;;;;;5035481;28;20025;-61
2022/04/17 11:40:51;;;;;;;1.20;1.10;;;18.00;34.10;;;;;;5035765;28;20022;-61
2022/04/17 11:43:18;;;;;;;1.60;1.15;;;18.30;33.90;;;;;;5035552;28;20030;-61
2022/04/17 11:45:47;;;;;;;2.65;1.63;;;18.50;35.70;;;;;;5035387;28;20025;-61
2022/04/17 11:48:17;;;;;;;1.50;1.40;;;18.70;36.50;;;;;;5035305;28;20041;-61
2022/04/17 11:50:43;;;;;;;1.75;1.55;;;19.20;37.30;;;;;;5035490;28;20025;-61
2022/04/17 11:53:16;;;;;;;1.45;1.20;;;19.30;36.90;;;;;;5034887;28;20071;-61
2022/04/17 11:55:43;;;;;;;12.63;6.75;;;19.40;33.80;;;;;;5035082;28;20112;-61
2022/04/17 11:58:11;;;;;;;10.98;6.03;;;19.60;32.90;;;;;;5035398;28;20026;-61
2022/04/17 12:00:37;;;;;;;7.40;3.50;;;19.60;32.80;;;;;;5034246;28;20030;-61
2022/04/17 12:03:05;;;;;;;4.53;2.80;;;19.60;33.80;;;;;;5034231;28;20021;-61
2022/04/17 12:05:33;;;;;;;1.88;1.52;;;19.60;33.80;;;;;;5033544;28;20075;-61
2022/04/17 12:08:09;;;;;;;2.25;1.52;;;19.60;33.60;;;;;;5034889;28;20021;-61
2022/04/17 12:10:38;;;;;;;1.30;1.20;;;20.00;35.40;;;;;;5034286;28;20053;-60
2022/04/17 12:13:20;;;;;;;1.15;1.00;;;20.10;35.70;;;;;;5035363;28;20113;-60
2022/04/17 12:15:48;;;;;;;2.30;1.40;;;20.40;34.50;;;;;;5034425;28;20180;-60
2022/04/17 12:18:18;;;;;;;1.67;1.42;;;20.00;31.90;;;;;;5034573;28;20041;-60
2022/04/17 12:20:52;;;;;;;2.78;1.30;;;19.60;33.40;;;;;;5034247;28;20032;-60
2022/04/17 12:23:18;;;;;;;1.30;1.20;;;19.40;33.80;;;;;;5034384;28;20391;-60
2022/04/17 12:25:44;;;;;;;1.45;1.30;;;19.10;34.20;;;;;;5034433;28;20079;-60
2022/04/17 12:28:11;;;;;;;2.03;1.17;;;19.00;33.90;;;;;;5034860;28;20388;-60
2022/04/17 12:30:37;;;;;;;1.85;1.40;;;18.70;34.10;;;;;;5034579;28;20029;-60
2022/04/17 12:33:27;;;;;;;1.70;1.10;;;18.70;34.60;;;;;;5034652;28;20025;-60
2022/04/17 12:36:06;;;;;;;2.15;1.27;;;18.10;34.60;;;;;;5034934;28;20077;-60
2022/04/17 12:38:33;;;;;;;1.95;1.10;;;18.30;35.20;;;;;;5034708;28;20025;-60
2022/04/17 12:40:59;;;;;;;2.25;1.50;;;18.50;35.50;;;;;;5034774;28;20376;-60
2022/04/17 12:43:30;;;;;;;2.45;1.52;;;19.10;34.70;;;;;;5034447;28;20025;-60
2022/04/17 12:46:06;;;;;;;2.53;1.33;;;19.60;35.60;;;;;;5034084;28;20035;-60
2022/04/17 12:48:36;;;;;;;1.90;1.20;;;19.50;34.10;;;;;;5034276;28;20476;-60
2022/04/17 12:51:04;;;;;;;3.45;1.60;;;19.60;32.90;;;;;;5033827;28;20026;-60
2022/04/17 12:53:41;;;;;;;2.45;1.63;;;19.30;33.30;;;;;;5034557;28;20013;-60
2022/04/17 12:56:09;;;;;;;1.77;1.42;;;19.30;34.40;;;;;;5034267;28;20017;-60
2022/04/17 12:58:53;;;;;;;2.33;1.50;;;18.80;33.80;;;;;;5034352;28;20033;-60
2022/04/17 13:01:21;;;;;;;2.80;2.45;;;18.40;33.90;;;;;;5033972;28;20167;-60
2022/04/17 13:03:47;;;;;;;3.67;2.75;;;18.60;33.30;;;;;;5033919;28;20028;-60
2022/04/17 13:06:18;;;;;;;4.97;2.53;;;18.80;34.80;;;;;;5034062;28;20029;-60
2022/04/17 13:09:01;;;;;;;2.08;1.88;;;19.30;35.90;;;;;;5033948;28;20476;-60
2022/04/17 13:11:39;;;;;;;2.00;1.30;;;19.70;32.60;;;;;;5034036;28;20040;-60
2022/04/17 13:14:04;;;;;;;2.83;1.52;;;19.80;32.30;;;;;;5033942;28;20379;-60